Time;durP1;ratioP1;P1;durP2;ratioP2;P2;SDS_P1;SDS_P2;PMS_P1;PMS_P2;Temp;Humidity;BMP_temperature;BMP_pressure;BME280_temperature;BME280_humidity;BME280_pressure;Samples;Min_cycle;Max_cycle;Signal;HPM_P1;HPM_P2
2022/07/24 00:00:00;;;;;;;3.67;3.10;;;23.60;99.90;;;;;;1042992;28;20432;-67
2022/07/24 00:00:30;;;;;;;3.27;2.97;;;23.60;99.90;;;;;;1043184;28;20187;-66
2022/07/24 00:01:01;;;;;;;3.53;3.23;;;23.60;99.90;;;;;;1042458;28;20055;-67
2022/07/24 00:01:32;;;;;;;3.90;3.07;;;23.60;99.90;;;;;;1042705;28;20056;-66
2022/07/24 00:02:03;;;;;;;3.30;3.00;;;23.60;99.90;;;;;;1040996;28;20023;-66
2022/07/24 00:02:34;;;;;;;3.30;3.00;;;23.60;99.90;;;;;;1043205;28;20028;-66
2022/07/24 00:03:04;;;;;;;3.00;2.70;;;23.60;99.90;;;;;;1042993;28;20017;-66
2022/07/24 00:03:35;;;;;;;4.17;2.70;;;23.60;99.90;;;;;;1043545;28;20091;-67
2022/07/24 00:04:06;;;;;;;3.03;2.47;;;23.60;99.90;;;;;;1043385;28;20082;-67
2022/07/24 00:04:37;;;;;;;3.47;3.10;;;23.60;99.90;;;;;;1043615;28;20101;-67
2022/07/24 00:05:08;;;;;;;3.92;3.13;;;23.60;99.90;;;;;;1043561;28;20267;-67
2022/07/24 00:05:39;;;;;;;3.03;2.72;;;23.60;99.90;;;;;;1043396;28;20514;-67
2022/07/24 00:06:09;;;;;;;3.33;3.03;;;23.60;99.90;;;;;;1043444;28;20811;-67
2022/07/24 00:06:40;;;;;;;3.60;3.27;;;23.60;99.90;;;;;;1043546;28;20095;-67
2022/07/24 00:07:11;;;;;;;3.40;3.10;;;23.60;99.90;;;;;;1040720;28;20025;-67
2022/07/24 00:07:43;;;;;;;3.53;3.05;;;23.60;99.90;;;;;;1039407;28;20108;-67
2022/07/24 00:08:14;;;;;;;4.30;3.17;;;23.60;99.90;;;;;;1039261;28;20084;-67
2022/07/24 00:08:44;;;;;;;3.33;2.80;;;23.60;99.90;;;;;;1039424;28;20588;-66
2022/07/24 00:09:15;;;;;;;3.77;2.90;;;23.60;99.90;;;;;;1039268;28;20030;-66
2022/07/24 00:09:46;;;;;;;3.35;3.05;;;23.60;99.90;;;;;;1039466;28;20021;-67
2022/07/24 00:10:17;;;;;;;3.20;3.00;;;23.60;99.90;;;;;;1038770;28;20013;-67
2022/07/24 00:10:47;;;;;;;3.70;3.40;;;23.60;99.90;;;;;;1039327;28;20052;-67
2022/07/24 00:11:18;;;;;;;4.13;3.17;;;23.60;99.90;;;;;;1038862;28;20041;-67
2022/07/24 00:11:49;;;;;;;3.20;2.90;;;23.60;99.90;;;;;;1039097;28;20525;-67
2022/07/24 00:12:19;;;;;;;3.30;3.00;;;23.60;99.90;;;;;;1038786;28;20120;-66
2022/07/24 00:12:50;;;;;;;3.70;3.30;;;23.60;99.90;;;;;;1039223;28;20502;-66
2022/07/24 00:13:21;;;;;;;3.40;2.63;;;23.60;99.90;;;;;;1038738;28;20040;-66
2022/07/24 00:13:52;;;;;;;2.90;2.60;;;23.60;99.90;;;;;;1039047;28;20041;-66
2022/07/24 00:14:22;;;;;;;3.40;2.97;;;23.50;99.90;;;;;;1038929;28;20071;-66
2022/07/24 00:14:53;;;;;;;4.60;3.10;;;23.50;99.90;;;;;;1039028;28;20052;-68
2022/07/24 00:15:24;;;;;;;3.57;3.27;;;23.50;99.90;;;;;;1038806;28;20017;-66
2022/07/24 00:15:55;;;;;;;3.50;3.00;;;23.50;99.90;;;;;;1039054;28;20705;-67
2022/07/24 00:16:25;;;;;;;3.33;3.03;;;23.50;99.90;;;;;;1038809;28;20727;-66
2022/07/24 00:16:56;;;;;;;4.30;3.37;;;23.50;99.90;;;;;;1039131;28;20029;-67
2022/07/24 00:17:27;;;;;;;3.20;2.90;;;23.50;99.90;;;;;;1038883;28;20069;-68
2022/07/24 00:17:57;;;;;;;4.20;3.50;;;23.50;99.90;;;;;;1039404;28;20496;-67
2022/07/24 00:18:28;;;;;;;3.40;3.10;;;23.50;99.90;;;;;;1039284;28;20021;-67
2022/07/24 00:18:58;;;;;;;3.43;3.03;;;23.50;99.90;;;;;;1039373;28;20025;-67
2022/07/24 00:19:29;;;;;;;3.13;2.83;;;23.50;99.90;;;;;;1038713;28;20029;-67
2022/07/24 00:19:59;;;;;;;3.47;3.00;;;23.50;99.90;;;;;;1039041;28;20135;-67
2022/07/24 00:20:30;;;;;;;4.27;3.43;;;23.50;99.90;;;;;;1039035;28;20342;-67
2022/07/24 00:21:01;;;;;;;4.07;3.67;;;23.50;99.90;;;;;;1038726;28;20022;-67
2022/07/24 00:21:31;;;;;;;3.57;3.27;;;23.50;99.90;;;;;;1038990;28;20025;-67
2022/07/24 00:22:02;;;;;;;3.23;2.87;;;23.50;99.90;;;;;;1038989;28;20099;-67
2022/07/24 00:22:33;;;;;;;3.47;3.07;;;23.50;99.90;;;;;;1038925;28;20030;-66
2022/07/24 00:23:04;;;;;;;3.07;2.77;;;23.50;99.90;;;;;;1038859;28;20060;-66
2022/07/24 00:23:35;;;;;;;3.22;2.92;;;23.50;99.90;;;;;;1034626;28;20026;-66
2022/07/24 00:24:05;;;;;;;3.53;2.87;;;23.50;99.90;;;;;;1034836;28;20105;-66
2022/07/24 00:24:36;;;;;;;3.93;3.53;;;23.50;99.90;;;;;;1035124;28;20453;-67
2022/07/24 00:25:07;;;;;;;4.90;3.33;;;23.50;99.90;;;;;;1034940;28;20025;-67
2022/07/24 00:25:38;;;;;;;3.63;3.30;;;23.50;99.90;;;;;;1038869;28;20087;-67
2022/07/24 00:26:10;;;;;;;4.07;3.13;;;23.50;99.90;;;;;;1038942;28;20083;-67
2022/07/24 00:26:41;;;;;;;3.20;2.90;;;23.40;99.90;;;;;;1038935;28;20029;-66
2022/07/24 00:27:13;;;;;;;3.83;3.42;;;23.50;99.90;;;;;;1038783;28;20018;-66
2022/07/24 00:27:43;;;;;;;5.95;3.22;;;23.40;99.90;;;;;;1038935;28;20052;-68
2022/07/24 00:28:14;;;;;;;4.17;3.07;;;23.40;99.90;;;;;;1038744;28;20021;-67
2022/07/24 00:28:45;;;;;;;3.75;3.28;;;23.40;99.90;;;;;;1038837;28;20028;-66
2022/07/24 00:29:15;;;;;;;5.60;3.70;;;23.40;99.90;;;;;;1038720;28;20109;-68
2022/07/24 00:29:46;;;;;;;3.43;3.10;;;23.40;99.90;;;;;;1039066;28;20025;-66
2022/07/24 00:30:17;;;;;;;3.97;3.40;;;23.40;99.90;;;;;;1034862;28;20025;-67
2022/07/24 00:30:47;;;;;;;3.83;3.43;;;23.40;99.90;;;;;;1039046;28;20028;-66
2022/07/24 00:31:18;;;;;;;4.30;3.73;;;23.40;99.90;;;;;;1038842;28;20439;-66
2022/07/24 00:31:49;;;;;;;4.22;3.67;;;23.40;99.90;;;;;;1039098;28;20096;-66
2022/07/24 00:32:19;;;;;;;5.10;3.60;;;23.40;99.90;;;;;;1039088;28;20036;-67
2022/07/24 00:32:50;;;;;;;3.27;2.90;;;23.40;99.90;;;;;;1039456;28;20118;-66
2022/07/24 00:33:21;;;;;;;3.90;3.37;;;23.40;99.90;;;;;;1038943;28;20022;-66
2022/07/24 00:33:51;;;;;;;3.97;3.60;;;23.40;99.90;;;;;;1039420;28;20432;-66
2022/07/24 00:34:22;;;;;;;3.33;3.03;;;23.40;99.90;;;;;;1039126;28;20010;-67
2022/07/24 00:34:53;;;;;;;3.33;3.03;;;23.40;99.90;;;;;;1039308;28;20029;-66
2022/07/24 00:35:23;;;;;;;3.77;3.20;;;23.40;99.90;;;;;;1039218;28;20666;-66
2022/07/24 00:35:54;;;;;;;3.30;3.00;;;23.40;99.90;;;;;;1038924;28;20083;-66
2022/07/24 00:36:24;;;;;;;3.23;2.93;;;23.40;99.90;;;;;;1038885;28;20096;-67
2022/07/24 00:36:55;;;;;;;3.77;3.30;;;23.40;99.90;;;;;;1039073;28;20108;-67
2022/07/24 00:37:27;;;;;;;3.60;3.30;;;23.40;99.90;;;;;;1038719;28;20018;-67
2022/07/24 00:37:57;;;;;;;3.35;3.05;;;23.40;99.90;;;;;;1038827;28;20037;-67
2022/07/24 00:38:28;;;;;;;3.47;3.17;;;23.40;99.90;;;;;;1038868;28;20040;-67
2022/07/24 00:38:58;;;;;;;2.90;2.70;;;23.40;99.90;;;;;;1038910;28;20010;-66
2022/07/24 00:39:29;;;;;;;3.20;2.90;;;23.40;99.90;;;;;;1039379;28;20524;-67
2022/07/24 00:39:59;;;;;;;3.80;3.10;;;23.40;99.90;;;;;;1039263;28;20556;-67
2022/07/24 00:40:31;;;;;;;4.10;3.27;;;23.40;99.90;;;;;;1039220;28;20064;-67
2022/07/24 00:41:01;;;;;;;5.20;2.97;;;23.40;99.90;;;;;;1039255;28;20018;-67
2022/07/24 00:41:32;;;;;;;3.27;2.97;;;23.40;99.90;;;;;;1039087;28;20425;-67
2022/07/24 00:42:03;;;;;;;3.77;3.40;;;23.50;99.90;;;;;;1039361;28;20025;-67
2022/07/24 00:42:33;;;;;;;3.77;3.40;;;23.50;99.90;;;;;;1039235;28;20021;-67
2022/07/24 00:43:04;;;;;;;3.47;3.17;;;23.50;99.90;;;;;;1039148;28;20109;-67
2022/07/24 00:43:34;;;;;;;3.33;3.03;;;23.50;99.90;;;;;;1038772;28;20025;-67
2022/07/24 00:44:15;;;;;;;4.03;3.63;;;23.50;99.90;;;;;;1038784;28;20021;-66
2022/07/24 00:44:46;;;;;;;3.63;3.30;;;23.40;99.90;;;;;;1038841;28;20033;-67
2022/07/24 00:45:17;;;;;;;3.80;3.17;;;23.50;99.90;;;;;;1038931;28;20032;-67
2022/07/24 00:45:47;;;;;;;3.60;3.30;;;23.50;99.90;;;;;;1038766;28;20268;-67
2022/07/24 00:46:19;;;;;;;3.33;2.97;;;23.40;99.90;;;;;;1039351;28;20016;-67
2022/07/24 00:46:49;;;;;;;3.47;3.17;;;23.40;99.90;;;;;;1039170;28;20013;-67
2022/07/24 00:47:20;;;;;;;4.30;3.90;;;23.40;99.90;;;;;;1039243;28;20010;-67
2022/07/24 00:47:52;;;;;;;3.53;3.20;;;23.50;99.90;;;;;;1039155;28;20021;-67
2022/07/24 00:48:22;;;;;;;3.45;3.15;;;23.40;99.90;;;;;;1039221;28;20013;-67
2022/07/24 00:48:53;;;;;;;3.90;3.30;;;23.40;99.90;;;;;;1039280;28;20013;-66
2022/07/24 00:49:23;;;;;;;3.47;3.17;;;23.40;99.90;;;;;;1038687;28;20409;-66
2022/07/24 00:49:54;;;;;;;3.40;3.10;;;23.40;99.90;;;;;;1038887;28;20026;-66
2022/07/24 00:50:26;;;;;;;3.53;3.20;;;23.40;99.90;;;;;;1038820;28;20010;-67
2022/07/24 00:50:56;;;;;;;3.70;3.25;;;23.40;99.90;;;;;;1038869;28;20100;-66
2022/07/24 00:51:27;;;;;;;3.30;2.77;;;23.40;99.90;;;;;;1038565;28;20013;-67
2022/07/24 00:51:58;;;;;;;3.95;3.55;;;23.40;99.90;;;;;;1039019;28;20096;-67
2022/07/24 00:52:28;;;;;;;3.10;2.80;;;23.40;99.90;;;;;;1038651;28;20018;-66
2022/07/24 00:52:59;;;;;;;3.90;3.10;;;23.40;99.90;;;;;;1038899;28;20104;-66
2022/07/24 00:53:30;;;;;;;3.70;3.40;;;23.40;99.90;;;;;;1038569;28;20022;-66
2022/07/24 00:54:03;;;;;;;3.60;3.20;;;23.40;99.90;;;;;;1038822;28;20044;-66
2022/07/24 00:54:34;;;;;;;3.45;3.10;;;23.40;99.90;;;;;;1038559;28;20013;-66
2022/07/24 00:55:06;;;;;;;3.63;3.30;;;23.40;99.90;;;;;;1038462;28;20017;-67
2022/07/24 00:55:37;;;;;;;3.53;3.22;;;23.40;99.90;;;;;;1034973;28;20551;-66
2022/07/24 00:56:07;;;;;;;4.07;3.70;;;23.30;99.90;;;;;;1038992;28;20619;-65
2022/07/24 00:56:40;;;;;;;3.93;3.23;;;23.30;99.90;;;;;;1038508;28;20060;-67
2022/07/24 00:57:11;;;;;;;3.60;3.30;;;23.30;99.90;;;;;;1038885;28;20027;-66
2022/07/24 00:57:43;;;;;;;3.40;3.10;;;23.30;99.90;;;;;;1038525;28;20024;-66
2022/07/24 00:58:14;;;;;;;3.80;3.08;;;23.30;99.90;;;;;;1038863;28;20481;-66
2022/07/24 00:58:46;;;;;;;3.97;3.57;;;23.30;99.90;;;;;;1038735;28;20473;-66
2022/07/24 00:59:19;;;;;;;3.97;3.58;;;23.30;99.90;;;;;;1039221;28;20028;-66
2022/07/24 00:59:49;;;;;;;3.85;3.22;;;23.30;99.90;;;;;;1038875;28;20025;-66
2022/07/24 01:00:21;;;;;;;3.90;3.50;;;23.30;99.90;;;;;;1039272;28;20132;-67
2022/07/24 01:00:54;;;;;;;3.45;3.15;;;23.30;99.90;;;;;;1038937;28;20087;-66
2022/07/24 01:01:25;;;;;;;3.47;3.17;;;23.30;99.90;;;;;;1039213;28;20393;-65
2022/07/24 01:01:55;;;;;;;3.77;3.40;;;23.30;99.90;;;;;;1038787;28;20085;-66
2022/07/24 01:02:26;;;;;;;3.50;3.20;;;23.30;99.90;;;;;;1042314;28;20153;-67
2022/07/24 01:02:57;;;;;;;4.13;3.43;;;23.20;99.90;;;;;;1042693;28;20640;-67
2022/07/24 01:03:28;;;;;;;3.65;3.30;;;23.20;99.90;;;;;;1040073;28;20606;-66
2022/07/24 01:03:59;;;;;;;3.87;3.50;;;23.20;99.90;;;;;;1038656;28;20730;-66
2022/07/24 01:04:29;;;;;;;4.03;3.60;;;23.20;99.90;;;;;;1038950;28;20017;-66
2022/07/24 01:05:00;;;;;;;4.40;3.60;;;23.20;99.90;;;;;;1038865;28;20100;-66
2022/07/24 01:05:30;;;;;;;2.97;2.77;;;23.20;99.90;;;;;;1039211;28;20017;-67
2022/07/24 01:06:02;;;;;;;4.57;3.47;;;23.20;99.90;;;;;;1042161;28;20095;-67
2022/07/24 01:06:33;;;;;;;4.15;3.60;;;23.20;99.90;;;;;;1042859;28;20107;-67
2022/07/24 01:07:04;;;;;;;3.63;3.33;;;23.20;99.90;;;;;;1042751;28;20033;-66
2022/07/24 01:07:36;;;;;;;4.00;3.58;;;23.20;99.90;;;;;;1042782;28;20013;-68
2022/07/24 01:08:06;;;;;;;3.78;3.38;;;23.20;99.90;;;;;;1042639;28;20021;-66
2022/07/24 01:08:37;;;;;;;3.10;2.80;;;23.20;99.90;;;;;;1042861;28;20092;-66
2022/07/24 01:09:09;;;;;;;3.63;3.33;;;23.20;99.90;;;;;;1038542;28;20025;-66
2022/07/24 01:09:40;;;;;;;4.05;3.60;;;23.20;99.90;;;;;;1038438;28;20120;-66
2022/07/24 01:10:11;;;;;;;3.60;3.30;;;23.20;99.90;;;;;;1038798;28;20018;-66
2022/07/24 01:10:42;;;;;;;4.20;3.80;;;23.20;99.90;;;;;;1038959;28;20104;-66
2022/07/24 01:11:13;;;;;;;4.13;3.60;;;23.20;99.90;;;;;;1042918;28;20571;-66
2022/07/24 01:11:43;;;;;;;3.53;3.23;;;23.20;99.90;;;;;;1043227;28;20021;-66
2022/07/24 01:12:14;;;;;;;3.63;3.33;;;23.20;99.90;;;;;;1042851;28;20027;-66
2022/07/24 01:12:45;;;;;;;3.57;3.27;;;23.20;99.90;;;;;;1042894;28;20276;-66
2022/07/24 01:13:16;;;;;;;4.95;3.72;;;23.20;99.90;;;;;;1042713;28;20064;-67
2022/07/24 01:13:48;;;;;;;3.80;3.50;;;23.20;99.90;;;;;;1042768;28;20021;-66
2022/07/24 01:14:19;;;;;;;5.22;3.72;;;23.20;99.90;;;;;;1042855;28;20134;-66
2022/07/24 01:14:49;;;;;;;4.43;4.03;;;23.20;99.90;;;;;;1043321;28;20009;-66
2022/07/24 01:15:20;;;;;;;4.27;3.87;;;23.20;99.90;;;;;;1042702;28;20043;-68
2022/07/24 01:15:51;;;;;;;3.73;3.27;;;23.20;99.90;;;;;;1038879;28;20543;-67
2022/07/24 01:16:21;;;;;;;4.70;3.50;;;23.20;99.90;;;;;;1038451;28;20488;-67
2022/07/24 01:16:52;;;;;;;3.67;3.30;;;23.20;99.90;;;;;;1038890;28;20540;-65
2022/07/24 01:17:23;;;;;;;3.43;3.13;;;23.20;99.90;;;;;;1038747;28;20547;-66
2022/07/24 01:17:53;;;;;;;5.63;3.80;;;23.20;99.90;;;;;;1043146;28;20013;-67
2022/07/24 01:18:24;;;;;;;4.03;3.37;;;23.20;99.90;;;;;;1043183;28;20024;-66
2022/07/24 01:18:57;;;;;;;4.27;3.83;;;23.20;99.90;;;;;;1043208;28;20107;-66
2022/07/24 01:19:28;;;;;;;4.13;3.42;;;23.20;99.90;;;;;;1043069;28;20055;-66
2022/07/24 01:19:59;;;;;;;4.13;3.40;;;23.20;99.90;;;;;;1043299;28;20036;-66
2022/07/24 01:20:29;;;;;;;3.90;3.60;;;23.20;99.90;;;;;;1043060;28;20017;-67
2022/07/24 01:21:00;;;;;;;3.73;3.33;;;23.20;99.90;;;;;;1043341;28;20264;-66
2022/07/24 01:21:31;;;;;;;4.23;3.53;;;23.20;99.90;;;;;;1043197;28;20025;-67
2022/07/24 01:22:02;;;;;;;4.17;3.57;;;23.20;99.90;;;;;;1043176;28;20024;-66
2022/07/24 01:22:33;;;;;;;3.35;3.05;;;23.20;99.90;;;;;;1043218;28;20095;-66
2022/07/24 01:23:03;;;;;;;4.30;3.57;;;23.20;99.90;;;;;;1042910;28;20021;-66
2022/07/24 01:23:34;;;;;;;4.00;3.60;;;23.20;99.90;;;;;;1042666;28;20750;-67
2022/07/24 01:24:05;;;;;;;4.87;3.53;;;23.20;99.90;;;;;;1042878;28;20066;-67
2022/07/24 01:24:36;;;;;;;4.03;3.63;;;23.20;99.90;;;;;;1042822;28;20017;-66
2022/07/24 01:25:07;;;;;;;4.10;3.35;;;23.20;99.90;;;;;;1043250;28;20131;-66
2022/07/24 01:25:37;;;;;;;4.78;3.65;;;23.20;99.90;;;;;;1043181;28;20459;-67
2022/07/24 01:26:08;;;;;;;3.93;3.53;;;23.20;99.90;;;;;;1042980;28;20400;-67
2022/07/24 01:26:39;;;;;;;4.50;4.10;;;23.20;99.90;;;;;;1042684;28;20553;-67
2022/07/24 01:27:10;;;;;;;3.53;3.22;;;23.20;99.90;;;;;;1038523;28;20487;-67
2022/07/24 01:27:41;;;;;;;5.18;4.30;;;23.20;99.90;;;;;;1034452;28;20018;-67
2022/07/24 01:28:12;;;;;;;4.03;3.60;;;23.20;99.90;;;;;;1034715;28;20022;-66
2022/07/24 01:28:43;;;;;;;4.50;4.10;;;23.20;99.90;;;;;;1038868;28;20039;-66
2022/07/24 01:29:15;;;;;;;3.90;3.03;;;23.20;99.90;;;;;;1042765;28;20009;-66
2022/07/24 01:29:49;;;;;;;4.43;4.03;;;23.20;99.90;;;;;;1042825;28;20025;-66
2022/07/24 01:30:19;;;;;;;3.95;3.55;;;23.20;99.90;;;;;;1042917;28;20103;-66
2022/07/24 01:30:50;;;;;;;4.20;3.80;;;23.20;99.90;;;;;;1043380;28;20023;-66
2022/07/24 01:31:21;;;;;;;4.20;3.73;;;23.20;99.90;;;;;;1042966;28;20021;-66
2022/07/24 01:31:51;;;;;;;4.13;3.73;;;23.20;99.90;;;;;;1043246;28;20024;-66
2022/07/24 01:32:22;;;;;;;4.87;3.83;;;23.10;99.90;;;;;;1043066;28;20666;-66
2022/07/24 01:32:53;;;;;;;4.00;3.60;;;23.10;99.90;;;;;;1042742;28;20104;-67
2022/07/24 01:33:24;;;;;;;3.90;3.50;;;23.10;99.90;;;;;;1042768;28;20039;-66
2022/07/24 01:33:55;;;;;;;4.95;2.80;;;23.10;99.90;;;;;;1042767;28;20408;-67
2022/07/24 01:34:25;;;;;;;4.57;4.17;;;23.10;99.90;;;;;;1042540;28;20574;-66
2022/07/24 01:34:56;;;;;;;7.43;3.90;;;23.10;99.90;;;;;;1042968;28;20017;-66
2022/07/24 01:35:26;;;;;;;4.83;3.60;;;23.10;99.90;;;;;;1042654;28;20020;-66
2022/07/24 01:35:57;;;;;;;3.77;3.40;;;23.10;99.90;;;;;;1042542;28;20104;-66
2022/07/24 01:36:28;;;;;;;3.77;3.27;;;23.10;99.90;;;;;;1042459;28;20016;-66
2022/07/24 01:36:58;;;;;;;4.10;3.70;;;23.10;99.90;;;;;;1042933;28;20079;-66
2022/07/24 01:37:29;;;;;;;3.60;3.30;;;23.10;99.90;;;;;;1042595;28;20023;-66
2022/07/24 01:37:59;;;;;;;4.10;3.70;;;23.10;99.90;;;;;;1042981;28;20108;-66
2022/07/24 01:38:30;;;;;;;3.83;3.40;;;23.10;99.90;;;;;;1042555;28;20558;-66
2022/07/24 01:39:01;;;;;;;4.17;3.20;;;23.10;99.90;;;;;;1042961;28;20100;-65
2022/07/24 01:39:31;;;;;;;4.20;3.80;;;23.10;99.90;;;;;;1042664;28;20013;-66
2022/07/24 01:40:03;;;;;;;3.60;3.30;;;23.10;99.90;;;;;;1042924;28;20013;-66
2022/07/24 01:40:33;;;;;;;4.32;3.92;;;23.10;99.90;;;;;;1042833;28;20013;-65
2022/07/24 01:41:04;;;;;;;4.13;3.70;;;23.10;99.90;;;;;;1043370;28;20013;-67
2022/07/24 01:41:35;;;;;;;4.47;3.90;;;23.10;99.90;;;;;;1042305;28;20576;-67
2022/07/24 01:42:06;;;;;;;4.32;3.10;;;23.10;99.90;;;;;;1042983;28;20013;-66
2022/07/24 01:42:36;;;;;;;3.97;3.30;;;23.10;99.90;;;;;;1042531;28;20112;-65
2022/07/24 01:43:07;;;;;;;3.70;3.40;;;23.10;99.90;;;;;;1042858;28;20064;-65
2022/07/24 01:43:38;;;;;;;4.30;3.90;;;23.10;99.90;;;;;;1042798;28;20120;-68
2022/07/24 01:44:09;;;;;;;4.10;3.50;;;23.10;99.90;;;;;;1042795;28;20095;-66
2022/07/24 01:44:40;;;;;;;4.23;3.83;;;23.10;99.90;;;;;;1042557;28;20067;-66
2022/07/24 01:45:10;;;;;;;4.00;3.57;;;23.10;99.90;;;;;;1042924;28;20480;-66
2022/07/24 01:45:41;;;;;;;4.47;4.07;;;23.10;99.90;;;;;;1042603;28;20013;-68
2022/07/24 01:46:11;;;;;;;4.33;3.93;;;23.10;99.90;;;;;;1043166;28;20456;-66
2022/07/24 01:46:42;;;;;;;3.37;3.07;;;23.10;99.90;;;;;;1043101;28;20511;-66
2022/07/24 01:47:12;;;;;;;4.50;4.00;;;23.10;99.90;;;;;;1043094;28;20509;-66
2022/07/24 01:47:43;;;;;;;4.30;3.90;;;23.10;99.90;;;;;;1043023;28;20107;-65
2022/07/24 01:48:14;;;;;;;4.78;3.33;;;23.10;99.90;;;;;;1042435;28;20112;-68
2022/07/24 01:48:45;;;;;;;3.80;3.40;;;23.10;99.90;;;;;;1042913;28;20037;-66
2022/07/24 01:49:15;;;;;;;4.10;3.70;;;23.10;99.90;;;;;;1042479;28;20472;-66
2022/07/24 01:49:46;;;;;;;4.17;3.80;;;23.10;99.90;;;;;;1042816;28;20032;-66
2022/07/24 01:50:17;;;;;;;4.73;4.07;;;23.10;99.90;;;;;;1042880;28;20028;-66
2022/07/24 01:50:48;;;;;;;4.00;3.60;;;23.10;99.90;;;;;;1043228;28;20013;-66
2022/07/24 01:51:18;;;;;;;4.00;3.60;;;23.10;99.90;;;;;;1042991;28;20380;-66
2022/07/24 01:51:49;;;;;;;3.23;2.93;;;23.10;99.90;;;;;;1043150;28;20107;-66
2022/07/24 01:52:20;;;;;;;3.73;3.27;;;23.10;99.90;;;;;;1042939;28;20515;-66
2022/07/24 01:52:52;;;;;;;4.00;3.60;;;23.10;99.90;;;;;;1042809;28;20586;-66
2022/07/24 01:53:24;;;;;;;3.80;3.40;;;23.10;99.90;;;;;;1042734;28;20013;-66
2022/07/24 01:53:54;;;;;;;4.15;3.75;;;23.10;99.90;;;;;;1042722;28;20017;-67
2022/07/24 01:54:25;;;;;;;4.70;4.20;;;23.00;99.90;;;;;;1042553;28;20025;-66
2022/07/24 01:54:55;;;;;;;4.53;3.60;;;23.10;99.90;;;;;;1042240;28;20059;-67
2022/07/24 01:55:26;;;;;;;4.00;3.60;;;23.10;99.90;;;;;;1042560;28;20021;-67
2022/07/24 01:55:57;;;;;;;3.87;3.47;;;23.10;99.90;;;;;;1042766;28;20013;-68
2022/07/24 01:56:28;;;;;;;4.07;3.37;;;23.10;99.90;;;;;;1042673;28;20044;-67
2022/07/24 01:56:58;;;;;;;4.72;4.00;;;23.10;99.90;;;;;;1043126;28;20017;-66
2022/07/24 01:57:29;;;;;;;3.97;3.57;;;23.10;99.90;;;;;;1043010;28;20029;-66
2022/07/24 01:57:59;;;;;;;3.90;3.50;;;23.10;99.90;;;;;;1043113;28;20020;-66
2022/07/24 01:58:30;;;;;;;4.13;3.73;;;23.10;99.90;;;;;;1042931;28;20142;-67
2022/07/24 01:59:00;;;;;;;4.20;3.53;;;23.10;99.90;;;;;;1042773;28;20447;-66
2022/07/24 01:59:31;;;;;;;4.50;3.30;;;23.10;99.90;;;;;;1041151;28;20628;-66
2022/07/24 02:00:05;;;;;;;4.00;3.60;;;23.10;99.90;;;;;;1038703;28;20018;-66
2022/07/24 02:00:36;;;;;;;4.10;3.70;;;23.10;99.90;;;;;;1038210;28;20024;-66
2022/07/24 02:01:07;;;;;;;5.53;4.40;;;23.10;99.90;;;;;;1038628;28;20460;-66
2022/07/24 02:01:37;;;;;;;4.97;3.57;;;23.00;99.90;;;;;;1038286;28;20761;-66
2022/07/24 02:02:08;;;;;;;4.37;3.70;;;23.10;99.90;;;;;;1039163;28;20151;-66
2022/07/24 02:02:39;;;;;;;3.20;2.90;;;23.10;99.90;;;;;;1038399;28;20120;-66
2022/07/24 02:03:10;;;;;;;4.38;3.88;;;23.10;99.90;;;;;;1042895;28;20044;-66
2022/07/24 02:03:41;;;;;;;4.40;4.00;;;23.10;99.90;;;;;;1042399;28;20049;-66
2022/07/24 02:04:11;;;;;;;4.73;4.07;;;23.10;99.90;;;;;;1038801;28;20525;-66
2022/07/24 02:04:42;;;;;;;4.80;4.23;;;23.10;99.90;;;;;;1042521;28;20109;-66
2022/07/24 02:05:13;;;;;;;4.27;3.80;;;23.10;99.90;;;;;;1042896;28;20473;-66
2022/07/24 02:05:44;;;;;;;4.40;4.00;;;23.10;99.90;;;;;;1042267;28;20025;-66
2022/07/24 02:06:15;;;;;;;4.80;3.73;;;23.10;99.90;;;;;;1043119;28;20057;-66
2022/07/24 02:06:46;;;;;;;4.93;4.53;;;23.10;99.90;;;;;;1042864;28;20058;-66
2022/07/24 02:07:16;;;;;;;4.10;3.20;;;23.10;99.90;;;;;;1043138;28;20083;-66
2022/07/24 02:07:56;;;;;;;4.03;3.47;;;23.10;99.90;;;;;;1042986;28;20021;-67
2022/07/24 02:08:26;;;;;;;3.80;3.50;;;23.00;99.90;;;;;;1043147;28;20029;-66
2022/07/24 02:08:57;;;;;;;4.17;3.43;;;23.00;99.90;;;;;;1042834;28;20021;-66
2022/07/24 02:09:27;;;;;;;3.87;3.57;;;23.00;99.90;;;;;;1043157;28;20038;-66
2022/07/24 02:09:58;;;;;;;5.20;4.07;;;23.00;99.90;;;;;;1042422;28;20021;-66
2022/07/24 02:10:29;;;;;;;5.13;3.50;;;23.00;99.90;;;;;;1042802;28;20041;-66
2022/07/24 02:11:00;;;;;;;4.22;3.83;;;23.00;99.90;;;;;;1038393;28;20099;-66
2022/07/24 02:11:30;;;;;;;4.57;3.93;;;23.00;99.90;;;;;;1038879;28;20147;-66
2022/07/24 02:12:01;;;;;;;4.00;3.60;;;23.00;99.90;;;;;;1042494;28;20025;-66
2022/07/24 02:12:31;;;;;;;3.97;3.50;;;23.00;99.90;;;;;;1042846;28;20052;-66
2022/07/24 02:13:02;;;;;;;4.47;3.37;;;23.00;99.90;;;;;;1043053;28;20021;-66
2022/07/24 02:13:33;;;;;;;4.13;3.55;;;23.00;99.90;;;;;;1043045;28;20036;-66
2022/07/24 02:14:03;;;;;;;4.10;3.40;;;23.00;99.90;;;;;;1043072;28;20540;-66
2022/07/24 02:14:34;;;;;;;4.53;3.70;;;23.00;99.90;;;;;;1043034;28;20027;-66
2022/07/24 02:15:05;;;;;;;4.30;3.90;;;23.00;99.90;;;;;;1042747;28;20463;-66
2022/07/24 02:15:36;;;;;;;4.28;3.85;;;23.00;99.90;;;;;;1042434;28;20504;-68
2022/07/24 02:16:06;;;;;;;4.23;3.63;;;23.00;99.90;;;;;;1038553;28;20643;-67
2022/07/24 02:16:37;;;;;;;5.07;4.17;;;23.00;99.90;;;;;;1034394;28;20497;-66
2022/07/24 02:17:07;;;;;;;4.43;4.03;;;22.90;99.90;;;;;;1038749;28;20021;-66
2022/07/24 02:17:38;;;;;;;4.50;4.10;;;23.00;99.90;;;;;;1038314;28;20044;-66
2022/07/24 02:18:09;;;;;;;4.73;3.90;;;23.00;99.90;;;;;;1042880;28;20444;-66
2022/07/24 02:18:39;;;;;;;4.20;3.50;;;23.00;99.90;;;;;;1042764;28;20340;-68
2022/07/24 02:19:10;;;;;;;4.23;3.40;;;23.00;99.90;;;;;;1043158;28;20012;-68
2022/07/24 02:19:41;;;;;;;4.40;3.83;;;23.00;99.90;;;;;;1042831;28;20112;-67
2022/07/24 02:20:11;;;;;;;4.50;4.10;;;23.00;99.90;;;;;;1043235;28;21191;-67
2022/07/24 02:20:42;;;;;;;4.13;3.60;;;23.00;99.90;;;;;;1042746;28;20100;-67
2022/07/24 02:21:12;;;;;;;4.43;4.03;;;22.90;99.90;;;;;;1043102;28;20628;-68
2022/07/24 02:21:43;;;;;;;4.80;4.40;;;22.90;99.90;;;;;;1042356;28;20631;-68
2022/07/24 02:22:13;;;;;;;3.90;3.57;;;22.90;99.90;;;;;;1042788;28;20601;-68
2022/07/24 02:22:44;;;;;;;4.73;4.33;;;22.90;99.90;;;;;;1042389;28;20055;-66
2022/07/24 02:23:17;;;;;;;4.13;3.72;;;22.90;99.90;;;;;;1042683;28;20028;-66
2022/07/24 02:23:48;;;;;;;5.10;4.13;;;22.90;99.90;;;;;;1037971;28;20017;-67
2022/07/24 02:24:19;;;;;;;4.18;3.58;;;22.90;99.90;;;;;;1033982;28;20028;-66
2022/07/24 02:24:49;;;;;;;5.07;4.03;;;22.90;99.90;;;;;;1030824;28;20029;-67
2022/07/24 02:25:21;;;;;;;4.97;4.40;;;22.90;99.90;;;;;;1034801;28;20110;-67
2022/07/24 02:25:51;;;;;;;4.63;3.95;;;22.90;99.90;;;;;;1038480;28;20097;-66
2022/07/24 02:26:22;;;;;;;4.37;3.57;;;22.90;99.90;;;;;;1042943;28;20542;-66
2022/07/24 02:26:53;;;;;;;5.57;4.00;;;22.90;99.90;;;;;;1042309;28;20035;-66
2022/07/24 02:27:24;;;;;;;4.22;3.83;;;22.90;99.90;;;;;;1042670;28;20005;-66
2022/07/24 02:27:54;;;;;;;4.53;4.13;;;22.90;99.90;;;;;;1042406;28;20013;-67
2022/07/24 02:28:25;;;;;;;4.70;3.17;;;22.90;99.90;;;;;;1042729;28;20017;-67
2022/07/24 02:28:55;;;;;;;4.50;4.10;;;22.90;99.90;;;;;;1042398;28;20012;-67
2022/07/24 02:29:26;;;;;;;4.33;3.93;;;22.90;99.90;;;;;;1043170;28;20048;-67
2022/07/24 02:29:57;;;;;;;4.35;3.70;;;22.90;99.90;;;;;;1042682;28;20013;-67
2022/07/24 02:30:28;;;;;;;5.03;4.57;;;22.90;99.90;;;;;;1042764;28;20561;-67
2022/07/24 02:30:59;;;;;;;4.67;4.20;;;23.00;99.90;;;;;;1042646;28;20263;-67
2022/07/24 02:31:29;;;;;;;4.37;3.67;;;22.90;99.90;;;;;;1042666;28;20013;-67
2022/07/24 02:32:00;;;;;;;3.37;3.07;;;23.00;99.90;;;;;;1040943;28;20070;-68
2022/07/24 02:32:31;;;;;;;4.20;3.80;;;22.90;99.90;;;;;;1038637;28;20017;-67
2022/07/24 02:33:01;;;;;;;4.90;4.27;;;23.00;99.90;;;;;;1038517;28;20013;-67
2022/07/24 02:33:32;;;;;;;4.43;4.03;;;23.00;99.90;;;;;;1038953;28;20462;-67
2022/07/24 02:34:02;;;;;;;4.03;3.63;;;23.00;99.90;;;;;;1038789;28;20075;-67
2022/07/24 02:34:33;;;;;;;4.80;4.30;;;23.00;99.90;;;;;;1038879;28;20080;-66
2022/07/24 02:35:04;;;;;;;5.83;4.57;;;23.00;99.90;;;;;;1038991;28;20083;-67
2022/07/24 02:35:36;;;;;;;4.47;3.78;;;23.00;99.90;;;;;;1038209;28;20436;-67
2022/07/24 02:36:07;;;;;;;4.93;4.43;;;23.00;99.90;;;;;;1038633;28;20065;-66
2022/07/24 02:36:38;;;;;;;4.15;3.70;;;23.00;99.90;;;;;;1038405;28;20029;-66
2022/07/24 02:37:09;;;;;;;4.47;4.07;;;23.00;99.90;;;;;;1038548;28;20013;-66
2022/07/24 02:37:43;;;;;;;5.25;4.35;;;23.00;99.90;;;;;;1038231;28;20098;-66
2022/07/24 02:38:13;;;;;;;4.53;4.13;;;23.00;99.90;;;;;;1038528;28;20014;-66
2022/07/24 02:38:44;;;;;;;4.30;3.87;;;23.00;99.90;;;;;;1038425;28;20030;-67
2022/07/24 02:39:14;;;;;;;5.57;4.50;;;22.90;99.90;;;;;;1038554;28;20025;-66
2022/07/24 02:39:45;;;;;;;4.27;3.83;;;23.00;99.90;;;;;;1038211;28;20108;-67
2022/07/24 02:40:15;;;;;;;5.10;4.60;;;22.90;99.90;;;;;;1038454;28;20029;-66
2022/07/24 02:40:46;;;;;;;4.60;4.20;;;22.90;99.90;;;;;;1038359;28;20026;-66